createdAt,value
2022-12-03T00:02:00.024Z,3.60
2022-12-03T00:04:26.899Z,3.54
2022-12-03T00:06:53.568Z,3.46
2022-12-03T00:09:20.133Z,3.42
2022-12-03T00:11:46.715Z,3.40
2022-12-03T00:14:13.354Z,3.42
2022-12-03T00:16:39.989Z,3.46
2022-12-03T00:19:07.779Z,3.52
2022-12-03T00:21:34.591Z,3.51
2022-12-03T00:24:01.367Z,3.49
2022-12-03T00:26:28.052Z,3.52
2022-12-03T00:28:54.984Z,3.59
2022-12-03T00:31:23.544Z,3.60
2022-12-03T00:33:53.037Z,3.59
2022-12-03T00:36:20.032Z,3.56
2022-12-03T00:38:46.526Z,3.51
2022-12-03T00:41:13.261Z,3.46
2022-12-03T00:43:39.947Z,3.46
2022-12-03T00:46:06.662Z,3.44
2022-12-03T00:48:33.305Z,3.42
2022-12-03T00:50:59.889Z,3.38
2022-12-03T00:53:26.641Z,3.40
2022-12-03T00:55:53.147Z,3.30
2022-12-03T00:58:19.681Z,3.26
2022-12-03T01:00:46.191Z,3.26
2022-12-03T01:03:12.727Z,3.25
2022-12-03T01:05:39.262Z,3.29
2022-12-03T01:08:06.019Z,3.28
2022-12-03T01:10:32.598Z,3.28
2022-12-03T01:12:59.110Z,3.23
2022-12-03T01:15:25.672Z,3.23
2022-12-03T01:17:54.228Z,3.22
2022-12-03T01:20:21.034Z,3.22
2022-12-03T01:22:47.612Z,3.19
2022-12-03T01:25:14.534Z,3.20
2022-12-03T01:27:41.105Z,3.17
2022-12-03T01:30:08.278Z,3.10
2022-12-03T01:32:34.836Z,3.03
2022-12-03T01:35:01.364Z,2.84
2022-12-03T01:37:28.077Z,2.82
2022-12-03T01:39:54.733Z,2.81
2022-12-03T01:42:27.278Z,2.85
2022-12-03T01:44:57.060Z,2.88
2022-12-03T01:47:34.716Z,2.98
2022-12-03T01:50:04.399Z,2.98
2022-12-03T01:52:36.146Z,3.00
2022-12-03T01:55:06.189Z,3.03
2022-12-03T01:57:45.500Z,3.08
2022-12-03T02:00:21.295Z,3.14
2022-12-03T02:02:55.098Z,3.16
2022-12-03T02:05:25.010Z,3.27
2022-12-03T02:07:52.289Z,3.30
2022-12-03T02:10:21.624Z,3.32
2022-12-03T02:13:03.289Z,3.35
2022-12-03T02:15:29.883Z,3.41
2022-12-03T02:17:57.756Z,3.47
2022-12-03T02:20:24.526Z,3.50
2022-12-03T02:23:09.416Z,3.51
2022-12-03T02:25:37.865Z,3.54
2022-12-03T02:28:06.050Z,3.63
2022-12-03T02:30:32.644Z,3.75
2022-12-03T02:32:59.746Z,3.80
2022-12-03T02:35:30.269Z,3.82
2022-12-03T02:38:03.321Z,3.85
2022-12-03T02:40:32.669Z,3.83
2022-12-03T02:43:02.517Z,3.89
2022-12-03T02:45:33.017Z,3.94
2022-12-03T02:48:02.440Z,4.00
2022-12-03T02:50:37.558Z,3.99
2022-12-03T02:53:07.273Z,4.04
2022-12-03T02:55:37.364Z,4.03
2022-12-03T02:58:05.788Z,4.08
2022-12-03T03:00:33.378Z,4.12
2022-12-03T03:03:01.192Z,4.14
2022-12-03T03:05:28.086Z,4.10
2022-12-03T03:07:56.697Z,4.06
2022-12-03T03:10:24.117Z,3.98
2022-12-03T03:12:52.825Z,3.92
2022-12-03T03:15:20.162Z,3.86
2022-12-03T03:17:46.607Z,3.85
2022-12-03T03:20:13.947Z,3.78
2022-12-03T03:22:41.278Z,3.79
2022-12-03T03:25:12.338Z,3.76
2022-12-03T03:27:41.011Z,3.79
2022-12-03T03:30:09.926Z,3.80
2022-12-03T03:32:37.659Z,3.91
2022-12-03T03:35:06.443Z,3.96
2022-12-03T03:37:33.057Z,4.02
2022-12-03T03:39:59.655Z,4.10
2022-12-03T03:42:26.235Z,4.18
2022-12-03T03:44:53.135Z,4.22
2022-12-03T03:47:20.842Z,4.28
2022-12-03T03:49:49.543Z,4.31
2022-12-03T03:52:16.303Z,4.34
2022-12-03T03:54:43.009Z,4.37
2022-12-03T03:57:09.575Z,4.37
2022-12-03T03:59:36.397Z,4.39
2022-12-03T04:02:03.539Z,4.43
2022-12-03T04:04:35.783Z,4.49
2022-12-03T04:07:02.473Z,4.53
2022-12-03T04:09:29.049Z,4.57
2022-12-03T04:12:14.285Z,4.64
2022-12-03T04:14:40.798Z,4.65
2022-12-03T04:17:07.299Z,4.67
2022-12-03T04:19:33.832Z,4.66
2022-12-03T04:22:18.898Z,4.63
2022-12-03T04:24:45.424Z,4.65
2022-12-03T04:27:30.589Z,4.65
2022-12-03T04:29:57.145Z,4.70
2022-12-03T04:32:42.130Z,4.72
2022-12-03T04:35:28.576Z,4.72
2022-12-03T04:37:55.144Z,4.68
2022-12-03T04:40:40.173Z,4.71
2022-12-03T04:43:06.726Z,4.71
2022-12-03T04:45:33.343Z,4.72
2022-12-03T04:47:59.966Z,4.73
2022-12-03T04:50:26.675Z,4.73
2022-12-03T04:52:53.165Z,4.73
2022-12-03T04:55:19.659Z,4.76
2022-12-03T04:57:46.153Z,4.79
2022-12-03T05:00:13.477Z,4.80
2022-12-03T05:02:39.955Z,4.81
2022-12-03T05:05:06.925Z,4.84
2022-12-03T05:07:33.554Z,4.83
2022-12-03T05:10:00.145Z,4.83
2022-12-03T05:12:26.731Z,4.93
2022-12-03T05:14:53.562Z,5.00
2022-12-03T05:17:20.337Z,5.05
2022-12-03T05:20:05.238Z,5.13
2022-12-03T05:22:31.805Z,5.14
2022-12-03T05:24:58.324Z,5.09
2022-12-03T05:27:24.884Z,5.08
2022-12-03T05:29:52.016Z,5.12
2022-12-03T05:32:18.952Z,5.11
2022-12-03T05:34:45.562Z,5.08
2022-12-03T05:37:12.082Z,5.08
2022-12-03T05:39:38.604Z,5.11
2022-12-03T05:42:23.726Z,5.12
2022-12-03T05:44:50.230Z,5.17
2022-12-03T05:47:16.802Z,5.17
2022-12-03T05:49:43.347Z,5.20
2022-12-03T05:52:09.946Z,5.15
2022-12-03T05:54:36.534Z,5.15
2022-12-03T05:57:03.141Z,5.11
2022-12-03T05:59:29.674Z,5.06
2022-12-03T06:01:56.313Z,5.16
2022-12-03T06:04:22.858Z,5.20
2022-12-03T06:06:49.358Z,5.24
2022-12-03T06:09:15.863Z,5.26
2022-12-03T06:11:42.385Z,5.28
2022-12-03T06:14:09.129Z,5.31
2022-12-03T06:16:35.666Z,5.31
2022-12-03T06:19:02.207Z,5.34
2022-12-03T06:21:28.746Z,5.33
2022-12-03T06:23:55.305Z,5.34
2022-12-03T06:26:21.831Z,5.41
2022-12-03T06:28:49.374Z,5.41
2022-12-03T06:31:16.036Z,5.46
2022-12-03T06:33:42.633Z,5.42
2022-12-03T06:36:09.246Z,5.24
2022-12-03T06:38:35.781Z,5.18
2022-12-03T06:41:02.318Z,5.20
2022-12-03T06:43:30.897Z,5.20
2022-12-03T06:45:57.432Z,5.28
2022-12-03T06:48:23.975Z,5.28
2022-12-03T06:50:50.517Z,5.38
2022-12-03T06:53:17.102Z,5.42
2022-12-03T06:55:43.695Z,5.42
2022-12-03T06:58:10.236Z,5.38
2022-12-03T07:00:36.788Z,5.37
2022-12-03T07:03:03.415Z,5.39
2022-12-03T07:05:30.084Z,5.48
2022-12-03T07:07:57.167Z,5.51
2022-12-03T07:10:23.787Z,5.61
2022-12-03T07:12:50.364Z,5.68
2022-12-03T07:15:17.150Z,5.78
2022-12-03T07:17:43.767Z,5.84
2022-12-03T07:20:10.783Z,5.94
2022-12-03T07:22:37.313Z,6.03
2022-12-03T07:25:04.455Z,6.09
2022-12-03T07:27:30.990Z,6.15
2022-12-03T07:29:57.530Z,6.06
2022-12-03T07:32:24.067Z,6.05
2022-12-03T07:34:50.885Z,6.07
2022-12-03T07:37:22.703Z,6.11
2022-12-03T07:39:49.778Z,6.11
2022-12-03T07:42:16.314Z,6.13
2022-12-03T07:44:42.855Z,6.11
2022-12-03T07:47:09.406Z,6.05
2022-12-03T07:49:35.997Z,6.15
2022-12-03T07:52:02.525Z,6.27
2022-12-03T07:54:29.071Z,6.34
2022-12-03T07:57:00.945Z,6.46
2022-12-03T07:59:28.559Z,6.58
2022-12-03T08:01:55.347Z,6.60
2022-12-03T08:04:22.113Z,6.43
2022-12-03T08:06:49.142Z,6.34
2022-12-03T08:09:16.301Z,6.24
2022-12-03T08:11:48.803Z,6.22
2022-12-03T08:14:18.082Z,6.28
2022-12-03T08:16:46.884Z,6.34
2022-12-03T08:19:17.816Z,6.45
2022-12-03T08:21:44.825Z,6.38
2022-12-03T08:24:17.339Z,6.31
2022-12-03T08:26:45.448Z,6.27
2022-12-03T08:29:15.315Z,6.39
2022-12-03T08:31:42.692Z,6.45
2022-12-03T08:34:19.457Z,6.48
2022-12-03T08:36:47.718Z,6.48
2022-12-03T08:39:28.247Z,6.57
2022-12-03T08:42:17.608Z,6.67
2022-12-03T08:44:44.610Z,6.80
2022-12-03T08:47:19.472Z,6.92
2022-12-03T08:49:55.123Z,6.97
2022-12-03T08:52:26.926Z,7.01
2022-12-03T08:55:29.072Z,6.98
2022-12-03T08:57:55.634Z,6.97
2022-12-03T09:00:24.380Z,6.91
2022-12-03T09:02:53.712Z,6.97
2022-12-03T09:05:28.132Z,7.06
2022-12-03T09:07:54.707Z,7.10
2022-12-03T09:10:21.329Z,7.10
2022-12-03T09:12:47.927Z,7.09
2022-12-03T09:15:14.532Z,7.13
2022-12-03T09:17:41.072Z,7.11
2022-12-03T09:20:08.304Z,7.13
2022-12-03T09:22:34.823Z,7.19
2022-12-03T09:25:01.489Z,7.12
2022-12-03T09:27:28.045Z,7.06
2022-12-03T09:29:54.567Z,7.01
2022-12-03T09:32:21.216Z,6.97
2022-12-03T09:34:47.829Z,6.92
2022-12-03T09:37:14.440Z,6.92
2022-12-03T09:39:40.966Z,6.95
2022-12-03T09:42:08.093Z,7.07
2022-12-03T09:44:35.507Z,7.09
2022-12-03T09:47:03.099Z,7.13
2022-12-03T09:49:32.591Z,7.10
2022-12-03T09:52:02.003Z,7.27
2022-12-03T09:54:30.732Z,7.34
2022-12-03T09:57:00.345Z,7.27
2022-12-03T09:59:33.406Z,7.29
2022-12-03T10:02:00.687Z,7.23
2022-12-03T10:04:28.574Z,7.27
2022-12-03T10:06:57.837Z,7.18
2022-12-03T10:09:26.702Z,7.24
2022-12-03T10:11:54.560Z,7.28
2022-12-03T10:14:21.267Z,7.37
2022-12-03T10:16:48.477Z,7.46
2022-12-03T10:19:27.669Z,7.50
2022-12-03T10:21:55.675Z,7.50
2022-12-03T10:24:33.758Z,7.53
2022-12-03T10:27:02.378Z,7.60
2022-12-03T10:29:34.280Z,7.57
2022-12-03T10:32:06.835Z,7.53
2022-12-03T10:34:41.220Z,7.39
2022-12-03T10:37:19.487Z,7.33
2022-12-03T10:40:11.882Z,7.30
2022-12-03T10:42:40.865Z,7.44
2022-12-03T10:45:22.703Z,7.56
2022-12-03T10:48:21.999Z,7.54
2022-12-03T10:51:04.674Z,7.61
2022-12-03T10:53:34.280Z,7.71
2022-12-03T10:56:03.228Z,7.67
2022-12-03T10:58:34.035Z,7.65
2022-12-03T11:01:05.982Z,7.63
2022-12-03T11:03:36.276Z,7.70
2022-12-03T11:06:03.453Z,7.69
2022-12-03T11:08:34.583Z,7.74
2022-12-03T11:11:04.868Z,7.76
2022-12-03T11:13:34.460Z,7.77
2022-12-03T11:16:07.445Z,7.76
2022-12-03T11:18:37.026Z,7.78
2022-12-03T11:21:06.489Z,7.91
2022-12-03T11:23:45.024Z,7.96
2022-12-03T11:26:19.280Z,7.98
2022-12-03T11:28:46.417Z,8.01
2022-12-03T11:31:35.787Z,8.05
2022-12-03T11:34:20.826Z,8.02
2022-12-03T11:37:11.941Z,7.99
2022-12-03T11:39:50.922Z,8.04
2022-12-03T11:42:26.388Z,8.12
2022-12-03T11:45:13.853Z,8.20
2022-12-03T11:47:47.019Z,8.19
2022-12-03T11:50:40.160Z,8.26
2022-12-03T11:53:25.438Z,8.41
2022-12-03T11:56:09.006Z,8.63
2022-12-03T11:58:38.390Z,8.79
2022-12-03T12:01:07.204Z,8.84
2022-12-03T12:03:37.084Z,8.78
2022-12-03T12:06:09.166Z,8.64
2022-12-03T12:08:38.342Z,8.53
2022-12-03T12:11:17.259Z,8.62
2022-12-03T12:14:26.357Z,8.78
2022-12-03T12:16:55.260Z,8.81
2022-12-03T12:19:43.207Z,8.65
2022-12-03T12:22:25.298Z,8.63
2022-12-03T12:24:56.728Z,8.73
2022-12-03T12:27:39.373Z,8.84
2022-12-03T12:30:14.874Z,8.86
2022-12-03T12:32:46.895Z,8.93
2022-12-03T12:35:28.317Z,9.06
2022-12-03T12:38:00.817Z,9.15
2022-12-03T12:40:32.920Z,9.18
2022-12-03T12:43:22.073Z,9.09
2022-12-03T12:45:53.165Z,9.10
2022-12-03T12:48:31.167Z,9.10
2022-12-03T12:51:09.531Z,9.15
2022-12-03T12:53:38.912Z,9.12
2022-12-03T12:56:32.360Z,9.22
2022-12-03T12:59:09.334Z,9.29
2022-12-03T13:01:36.514Z,9.22
2022-12-03T13:04:14.162Z,9.24
2022-12-03T13:06:41.167Z,9.19
2022-12-03T13:09:19.131Z,9.23
2022-12-03T13:11:58.514Z,9.22
2022-12-03T13:14:30.292Z,9.28
2022-12-03T13:16:59.034Z,9.25
2022-12-03T13:19:27.865Z,9.11
2022-12-03T13:21:56.356Z,9.04
2022-12-03T13:24:37.947Z,9.04
2022-12-03T13:27:13.766Z,8.89
2022-12-03T13:29:40.595Z,8.84
2022-12-03T13:32:14.253Z,8.72
2022-12-03T13:34:41.114Z,8.52
2022-12-03T13:37:19.553Z,8.26
2022-12-03T13:39:49.808Z,8.19
2022-12-03T13:42:39.167Z,8.19
2022-12-03T13:45:14.788Z,8.11
2022-12-03T13:47:43.349Z,7.97
2022-12-03T13:50:22.125Z,8.03
2022-12-03T13:52:48.759Z,8.06
2022-12-03T13:55:28.032Z,8.08
2022-12-03T13:57:55.499Z,8.12
2022-12-03T14:00:21.963Z,8.16
2022-12-03T14:02:48.683Z,8.04
2022-12-03T14:05:15.502Z,7.98
2022-12-03T14:07:42.082Z,7.97
2022-12-03T14:10:11.386Z,7.88
2022-12-03T14:12:38.290Z,7.77
2022-12-03T14:15:06.409Z,7.86
2022-12-03T14:17:33.010Z,7.87
2022-12-03T14:20:03.807Z,8.03
2022-12-03T14:22:30.737Z,8.05
2022-12-03T14:24:57.580Z,7.98
2022-12-03T14:27:24.956Z,7.98
2022-12-03T14:29:52.246Z,8.03
2022-12-03T14:32:19.240Z,8.04
2022-12-03T14:34:45.818Z,8.02
2022-12-03T14:37:12.333Z,8.02
2022-12-03T14:39:38.985Z,8.04
2022-12-03T14:42:14.926Z,8.06
2022-12-03T14:44:46.151Z,8.07
2022-12-03T14:47:13.804Z,8.10
2022-12-03T14:49:41.118Z,8.05
2022-12-03T14:52:11.911Z,8.05
2022-12-03T14:54:39.255Z,8.02
2022-12-03T14:57:05.909Z,8.02
2022-12-03T14:59:32.453Z,8.03
2022-12-03T15:01:59.075Z,7.96
2022-12-03T15:04:25.970Z,8.03
2022-12-03T15:06:52.555Z,8.00
2022-12-03T15:09:19.193Z,8.05
2022-12-03T15:11:46.675Z,8.02
2022-12-03T15:14:13.688Z,8.01
2022-12-03T15:16:40.449Z,8.00
2022-12-03T15:19:07.233Z,7.97
2022-12-03T15:21:35.024Z,7.96
2022-12-03T15:24:02.552Z,7.93
2022-12-03T15:26:29.257Z,7.94
2022-12-03T15:28:55.945Z,7.89
2022-12-03T15:31:22.666Z,7.93
2022-12-03T15:33:49.293Z,7.95
2022-12-03T15:36:15.895Z,7.91
2022-12-03T15:38:42.705Z,7.84
2022-12-03T15:41:21.605Z,7.80
2022-12-03T15:43:49.069Z,7.78
2022-12-03T15:46:15.739Z,7.74
2022-12-03T15:48:42.298Z,7.68
2022-12-03T15:51:08.767Z,7.63
2022-12-03T15:53:35.386Z,7.57
2022-12-03T15:56:01.872Z,7.51
2022-12-03T15:58:28.772Z,7.44
2022-12-03T16:00:55.236Z,7.34
2022-12-03T16:03:21.783Z,7.25
2022-12-03T16:05:48.241Z,7.19
2022-12-03T16:08:14.801Z,7.15
2022-12-03T16:10:41.234Z,7.09
2022-12-03T16:13:07.664Z,7.05
2022-12-03T16:15:35.214Z,6.98
2022-12-03T16:18:01.739Z,6.89
2022-12-03T16:20:28.192Z,6.86
2022-12-03T16:22:54.650Z,6.81
2022-12-03T16:25:21.192Z,6.77
2022-12-03T16:27:47.635Z,6.74
2022-12-03T16:30:14.238Z,6.72
2022-12-03T16:32:40.826Z,6.68
2022-12-03T16:35:07.477Z,6.67
2022-12-03T16:37:33.888Z,6.62
2022-12-03T16:40:00.373Z,6.62
2022-12-03T16:42:27.343Z,6.59
2022-12-03T16:44:59.551Z,6.57
2022-12-03T16:47:30.638Z,6.59
2022-12-03T16:50:00.153Z,6.54
2022-12-03T16:52:26.649Z,6.49
2022-12-03T16:54:53.134Z,6.48
2022-12-03T16:57:19.609Z,6.41
2022-12-03T16:59:46.023Z,6.37
2022-12-03T17:02:13.069Z,6.29
2022-12-03T17:04:39.575Z,6.25
2022-12-03T17:07:06.032Z,6.18
2022-12-03T17:09:32.533Z,6.14
2022-12-03T17:11:59.006Z,6.05
2022-12-03T17:14:31.462Z,6.06
2022-12-03T17:16:59.697Z,6.07
2022-12-03T17:19:26.144Z,6.04
2022-12-03T17:21:54.019Z,6.07
2022-12-03T17:24:21.479Z,6.06
2022-12-03T17:26:48.058Z,6.00
2022-12-03T17:29:14.529Z,5.98
2022-12-03T17:31:42.521Z,5.86
2022-12-03T17:34:09.648Z,5.82
2022-12-03T17:36:36.142Z,5.84
2022-12-03T17:39:02.653Z,5.80
2022-12-03T17:41:29.092Z,5.67
2022-12-03T17:43:55.512Z,5.67
2022-12-03T17:46:22.033Z,5.65
2022-12-03T17:48:48.604Z,5.66
2022-12-03T17:51:15.014Z,5.69
2022-12-03T17:53:41.497Z,5.75
2022-12-03T17:56:07.893Z,5.80
2022-12-03T17:58:34.822Z,5.81
2022-12-03T18:01:03.063Z,5.80
2022-12-03T18:03:30.022Z,5.79
2022-12-03T18:05:56.598Z,5.72
2022-12-03T18:08:23.156Z,5.75
2022-12-03T18:10:49.832Z,5.83
2022-12-03T18:13:16.239Z,5.90
2022-12-03T18:15:42.784Z,5.97
2022-12-03T18:18:09.196Z,6.02
2022-12-03T18:20:35.742Z,6.04
2022-12-03T18:23:02.425Z,6.06
2022-12-03T18:25:29.033Z,6.07
2022-12-03T18:27:55.609Z,6.11
2022-12-03T18:30:22.405Z,6.13
2022-12-03T18:32:50.715Z,6.22
2022-12-03T18:35:18.070Z,6.28
2022-12-03T18:37:44.709Z,6.30
2022-12-03T18:40:16.785Z,6.32
2022-12-03T18:42:43.231Z,6.34
2022-12-03T18:45:11.321Z,6.40
2022-12-03T18:47:37.810Z,6.41
2022-12-03T18:50:05.145Z,6.43
2022-12-03T18:52:31.636Z,6.51
2022-12-03T18:54:58.047Z,6.57
2022-12-03T18:57:24.529Z,6.57
2022-12-03T18:59:50.987Z,6.62
2022-12-03T19:02:38.998Z,6.65
2022-12-03T19:05:06.319Z,6.64
2022-12-03T19:07:32.815Z,6.59
2022-12-03T19:09:59.336Z,6.45
2022-12-03T19:12:25.913Z,6.46
2022-12-03T19:14:52.403Z,6.51
2022-12-03T19:17:18.863Z,6.53
2022-12-03T19:19:46.471Z,6.54
2022-12-03T19:22:12.928Z,6.46
2022-12-03T19:24:39.434Z,6.40
2022-12-03T19:27:05.883Z,6.40
2022-12-03T19:29:32.297Z,6.37
2022-12-03T19:31:58.815Z,6.37
2022-12-03T19:34:25.392Z,6.43
2022-12-03T19:36:51.811Z,6.45
2022-12-03T19:39:18.262Z,6.47
2022-12-03T19:41:44.848Z,6.47
2022-12-03T19:44:12.230Z,6.46
2022-12-03T19:46:38.693Z,6.44
2022-12-03T19:49:06.197Z,6.50
2022-12-03T19:51:35.157Z,6.55
2022-12-03T19:54:02.816Z,6.57
2022-12-03T19:56:30.420Z,6.55
2022-12-03T19:58:57.310Z,6.48
2022-12-03T20:01:25.323Z,6.47
2022-12-03T20:03:53.229Z,6.41
2022-12-03T20:06:23.047Z,6.38
2022-12-03T20:08:50.100Z,6.36
2022-12-03T20:11:17.676Z,6.32
2022-12-03T20:13:44.589Z,6.26
2022-12-03T20:16:12.619Z,6.26
2022-12-03T20:18:40.459Z,6.30
2022-12-03T20:21:07.337Z,6.33
2022-12-03T20:23:33.750Z,6.39
2022-12-03T20:26:00.228Z,6.42
2022-12-03T20:28:27.891Z,6.46
2022-12-03T20:31:07.333Z,6.49
2022-12-03T20:33:33.777Z,6.45
2022-12-03T20:36:00.172Z,6.47
2022-12-03T20:38:27.081Z,6.44
2022-12-03T20:40:53.741Z,6.43
2022-12-03T20:43:20.310Z,6.48
2022-12-03T20:45:47.038Z,6.50
2022-12-03T20:48:13.589Z,6.52
2022-12-03T20:50:40.196Z,6.48
2022-12-03T20:53:24.220Z,6.52
2022-12-03T20:55:57.617Z,6.49
2022-12-03T20:58:24.151Z,6.44
2022-12-03T21:00:50.976Z,6.44
2022-12-03T21:03:17.424Z,6.45
2022-12-03T21:05:47.627Z,6.44
2022-12-03T21:08:14.223Z,6.46
2022-12-03T21:10:47.536Z,6.49
2022-12-03T21:13:14.973Z,6.49
2022-12-03T21:15:42.154Z,6.50
2022-12-03T21:18:09.084Z,6.54
2022-12-03T21:20:42.517Z,6.56
2022-12-03T21:23:09.029Z,6.52
2022-12-03T21:25:35.809Z,6.55
2022-12-03T21:28:03.232Z,6.53
2022-12-03T21:30:29.792Z,6.53
2022-12-03T21:32:56.237Z,6.52
2022-12-03T21:35:22.777Z,6.56
2022-12-03T21:37:49.353Z,6.60
2022-12-03T21:40:15.882Z,6.65
2022-12-03T21:42:42.281Z,6.67
2022-12-03T21:45:08.909Z,6.67
2022-12-03T21:47:37.435Z,6.71
2022-12-03T21:50:05.641Z,6.75
2022-12-03T21:52:33.254Z,6.75
2022-12-03T21:54:59.704Z,6.74
2022-12-03T21:57:26.187Z,6.76
2022-12-03T21:59:52.837Z,6.76
2022-12-03T22:02:19.773Z,6.79
2022-12-03T22:04:49.557Z,6.80
2022-12-03T22:07:16.008Z,6.80
2022-12-03T22:09:42.412Z,6.80
2022-12-03T22:12:08.813Z,6.82
2022-12-03T22:14:35.252Z,6.75
2022-12-03T22:17:01.762Z,6.56
2022-12-03T22:19:28.242Z,6.53
2022-12-03T22:21:54.706Z,6.52
2022-12-03T22:24:21.634Z,6.55
2022-12-03T22:26:48.162Z,6.60
2022-12-03T22:29:14.914Z,6.63
2022-12-03T22:31:41.362Z,6.70
2022-12-03T22:34:07.785Z,6.72
2022-12-03T22:36:34.306Z,6.78
2022-12-03T22:39:00.750Z,6.78
2022-12-03T22:41:27.152Z,6.80
2022-12-03T22:43:53.624Z,6.76
2022-12-03T22:46:20.104Z,6.80
2022-12-03T22:48:46.828Z,6.80
2022-12-03T22:51:14.780Z,6.82
2022-12-03T22:53:41.168Z,6.85
2022-12-03T22:56:08.012Z,6.88
2022-12-03T22:58:34.514Z,6.91
2022-12-03T23:01:03.073Z,6.92
2022-12-03T23:03:29.852Z,6.90
2022-12-03T23:05:56.405Z,6.85
2022-12-03T23:08:22.821Z,6.83
2022-12-03T23:10:50.322Z,6.79
2022-12-03T23:13:17.808Z,6.78
2022-12-03T23:15:51.245Z,6.77
2022-12-03T23:18:18.830Z,6.78
2022-12-03T23:20:46.530Z,6.83
2022-12-03T23:23:13.225Z,6.83
2022-12-03T23:25:39.709Z,6.85
2022-12-03T23:28:06.437Z,6.84
2022-12-03T23:30:36.509Z,6.84
2022-12-03T23:33:03.993Z,6.85
2022-12-03T23:35:30.548Z,6.86
2022-12-03T23:37:57.024Z,6.85
2022-12-03T23:40:23.930Z,6.82
2022-12-03T23:42:50.379Z,6.77
2022-12-03T23:45:16.852Z,6.72
2022-12-03T23:47:43.308Z,6.69
2022-12-03T23:50:11.094Z,6.69
2022-12-03T23:52:37.515Z,6.65
2022-12-03T23:55:04.054Z,6.65
2022-12-03T23:57:30.469Z,6.64
2022-12-03T23:59:57.171Z,6.67
